Merces, Brazil
Current Conditions -  °F | °C
As of 8:00 AM on Thursday 27 Nov 2014 (Local Time) from SBBQ Reporting Station
Broken Clouds Broken Clouds  
Wind Chill: 66°   Ceiling: 900
Heat Index: 66°   Visibility: 6mi
Dew Point: 64°   Wind: 8mph
Humidity: 94%   Direction: 320°NW
Pressure: 30.06"   Gusts: NA
Location:  21.19°S, 43.34°W
Report Text: SBBQ 271000Z 32007KT 9999 BKN009 19/18 Q1018
Loading
Personal Weather Stations






























Interactive Weather Map New forecast layout! Learn more

10-Day Weather Forecast

Advertisements
Track Severe Weather on mobile